Time;durP1;ratioP1;P1;durP2;ratioP2;P2;SDS_P1;SDS_P2;PMS_P1;PMS_P2;Temp;Humidity;BMP_temperature;BMP_pressure;BME280_temperature;BME280_humidity;BME280_pressure;Samples;Min_cycle;Max_cycle;Signal;HPM_P1;HPM_P2
2021/07/19 00:01:05;;;;;;;;;6.00;6.00;;;;;24.85;49.49;101728.78;4999738;28;45271;-83
2021/07/19 00:03:30;;;;;;;;;6.33;6.33;;;;;24.82;49.37;101732.50;4993224;28;45323;-82
2021/07/19 00:05:56;;;;;;;;;10.25;8.00;;;;;24.79;49.25;101724.59;4991047;28;45675;-82
2021/07/19 00:08:21;;;;;;;;;9.00;9.00;;;;;24.81;49.47;101728.09;4986154;28;45463;-82
2021/07/19 00:10:48;;;;;;;;;6.67;6.67;;;;;24.77;49.76;101722.91;4985776;28;45967;-83
2021/07/19 00:13:13;;;;;;;;;8.00;7.00;;;;;24.75;49.73;101727.47;4982367;28;45392;-83
2021/07/19 00:15:38;;;;;;;;;6.75;6.75;;;;;24.74;49.15;101709.59;4983704;28;45372;-83
2021/07/19 00:18:04;;;;;;;;;6.67;5.67;;;;;24.73;49.82;101721.31;4982182;28;45750;-83
2021/07/19 00:20:29;;;;;;;;;8.00;6.67;;;;;24.68;49.77;101715.28;4981396;28;47268;-83
2021/07/19 00:22:55;;;;;;;;;6.50;6.00;;;;;24.63;49.40;101718.19;4986770;28;45447;-83
2021/07/19 00:25:21;;;;;;;;;6.33;6.33;;;;;24.64;49.75;101718.13;5009295;28;45644;-83
2021/07/19 00:27:47;;;;;;;;;6.00;6.00;;;;;24.60;50.13;101721.88;4999658;28;45221;-83
2021/07/19 00:30:15;;;;;;;;;8.25;7.25;;;;;24.52;49.65;101718.69;4990061;28;45481;-83
2021/07/19 00:32:43;;;;;;;;;7.67;7.67;;;;;24.47;50.48;101719.84;4997125;28;45288;-84
2021/07/19 00:35:09;;;;;;;;;7.75;6.00;;;;;24.44;50.79;101720.84;4983719;28;45410;-83
2021/07/19 00:37:36;;;;;;;;;9.25;8.00;;;;;24.40;50.60;101714.72;4997361;28;45522;-83
2021/07/19 00:40:07;;;;;;;;;8.33;8.00;;;;;24.39;50.41;101706.69;5002971;28;47180;-83
2021/07/19 00:42:32;;;;;;;;;7.67;7.00;;;;;24.36;50.29;101709.53;4983878;28;45468;-83
2021/07/19 00:44:58;;;;;;;;;10.50;9.00;;;;;24.37;50.71;101714.84;4983919;28;45345;-83
2021/07/19 00:47:23;;;;;;;;;6.33;6.00;;;;;24.30;50.83;101710.69;4981455;28;45373;-83
2021/07/19 00:49:49;;;;;;;;;9.50;9.50;;;;;24.31;50.58;101706.19;4992104;28;47789;-83
2021/07/19 00:52:14;;;;;;;;;7.75;6.75;;;;;24.29;50.76;101703.53;4980195;28;45465;-83
2021/07/19 00:54:44;;;;;;;;;5.00;5.00;;;;;24.28;51.12;101700.94;4995553;28;45428;-82
2021/07/19 00:57:10;;;;;;;;;10.50;7.00;;;;;24.25;51.10;101710.03;4983552;28;45446;-83
2021/07/19 00:59:37;;;;;;;;;9.00;7.75;;;;;24.23;51.05;101706.53;4991344;28;46952;-83
2021/07/19 01:02:05;;;;;;;;;8.00;8.00;;;;;24.20;50.81;101712.91;4982730;28;45512;-83
2021/07/19 01:04:31;;;;;;;;;9.00;9.00;;;;;24.19;51.04;101707.59;4982574;28;45316;-83
2021/07/19 01:07:01;;;;;;;;;7.67;7.67;;;;;24.18;51.43;101709.41;4987833;28;45553;-83
2021/07/19 01:09:28;;;;;;;;;8.67;6.67;;;;;24.16;50.95;101705.94;4985735;28;45386;-83
2021/07/19 01:11:58;;;;;;;;;6.25;6.25;;;;;24.16;51.55;101707.75;4990969;28;45550;-83
2021/07/19 01:14:25;;;;;;;;;7.33;7.00;;;;;24.17;51.49;101712.19;5000281;28;45297;-82
2021/07/19 01:16:52;;;;;;;;;7.00;7.00;;;;;24.18;51.50;101712.09;4996020;28;45530;-82
2021/07/19 01:19:18;;;;;;;;;7.67;7.33;;;;;24.17;51.05;101706.81;4994813;28;47136;-83
2021/07/19 01:21:46;;;;;;;;;12.50;10.00;;;;;24.18;51.80;101705.84;4985847;28;47429;-83
2021/07/19 01:24:28;;;;;;;;;8.67;7.33;;;;;24.11;51.45;101707.97;4988433;28;45317;-83
2021/07/19 01:27:31;;;;;;;;;9.33;8.00;;;;;24.11;51.92;101716.03;4984339;28;45681;-83
2021/07/19 01:30:00;;;;;;;;;8.50;8.50;;;;;24.07;51.93;101703.66;4981832;28;45562;-83
2021/07/19 01:32:27;;;;;;;;;9.33;8.00;;;;;24.08;51.99;101704.53;4988346;28;45453;-83
2021/07/19 01:34:53;;;;;;;;;10.67;10.00;;;;;24.07;51.69;101706.34;5008064;28;45299;-83
2021/07/19 01:37:20;;;;;;;;;8.00;8.00;;;;;24.10;51.62;101708.03;5000193;28;45263;-83
2021/07/19 01:39:46;;;;;;;;;9.67;8.00;;;;;24.05;51.54;101707.34;4987151;28;47279;-83
2021/07/19 01:42:12;;;;;;;;;9.25;9.25;;;;;24.04;51.92;101705.63;4988361;28;45468;-83
2021/07/19 01:44:38;;;;;;;;;10.00;8.67;;;;;24.01;51.74;101709.31;4980399;28;45360;-83
2021/07/19 01:47:06;;;;;;;;;10.25;9.25;;;;;23.96;52.11;101700.56;4999396;28;45424;-84
2021/07/19 01:49:32;;;;;;;;;10.25;10.25;;;;;23.90;52.37;101707.09;4981179;28;46166;-83
2021/07/19 01:51:58;;;;;;;;;9.50;9.50;;;;;23.92;52.55;101709.72;4987823;28;45247;-83
2021/07/19 01:54:24;;;;;;;;;8.25;7.75;;;;;23.88;52.49;101705.41;4981346;28;45323;-83
2021/07/19 01:56:50;;;;;;;;;8.50;8.50;;;;;23.88;52.14;101711.66;4983711;28;45221;-84
2021/07/19 01:59:17;;;;;;;;;8.75;7.75;;;;;23.87;52.47;101709.94;4986668;28;47986;-83
2021/07/19 02:01:43;;;;;;;;;10.25;8.50;;;;;23.84;52.31;101706.47;4986738;28;45553;-83
2021/07/19 02:04:09;;;;;;;;;7.50;7.50;;;;;23.82;52.78;101713.75;5003878;28;45470;-83
2021/07/19 02:06:36;;;;;;;;;7.00;6.00;;;;;23.81;52.89;101709.31;4988275;28;45446;-83
2021/07/19 02:09:05;;;;;;;;;12.00;11.00;;;;;23.81;53.48;101717.38;5000337;28;47511;-83
2021/07/19 02:11:33;;;;;;;;;9.75;8.75;;;;;23.72;52.84;101707.91;5001489;28;45252;-83
2021/07/19 02:13:59;;;;;;;;;12.33;9.67;;;;;23.72;52.83;101715.97;4984532;28;45445;-83
2021/07/19 02:16:28;;;;;;;;;9.75;9.75;;;;;23.68;52.81;101715.22;4983879;28;45517;-83
2021/07/19 02:18:54;;;;;;;;;8.50;8.50;;;;;23.68;53.14;101714.31;5000504;28;46055;-83
2021/07/19 02:21:23;;;;;;;;;10.25;9.75;;;;;23.64;52.85;101701.94;4997566;28;45229;-83
2021/07/19 02:23:50;;;;;;;;;10.00;9.67;;;;;23.60;53.21;101706.56;5009603;28;45438;-83
2021/07/19 02:26:17;;;;;;;;;9.33;8.00;;;;;23.58;52.85;101704.91;5033436;28;45527;-83
2021/07/19 02:28:44;;;;;;;;;13.50;12.50;;;;;23.57;53.54;101712.06;5011204;28;46125;-84
2021/07/19 02:31:10;;;;;;;;;12.00;9.75;;;;;23.53;53.54;101710.47;5017204;28;45403;-83
2021/07/19 02:33:37;;;;;;;;;11.00;11.00;;;;;23.56;53.68;101718.41;5012297;28;45285;-83
2021/07/19 02:36:06;;;;;;;;;8.00;8.00;;;;;23.49;53.62;101715.09;4999212;28;45409;-83
2021/07/19 02:38:33;;;;;;;;;10.25;10.00;;;;;23.43;54.26;101718.03;5014814;28;46418;-83
2021/07/19 02:40:59;;;;;;;;;9.00;9.00;;;;;23.35;54.14;101717.50;4985539;28;45290;-83
2021/07/19 02:43:26;;;;;;;;;10.00;10.00;;;;;23.34;54.42;101729.19;5004898;28;45155;-83
2021/07/19 02:45:54;;;;;;;;;11.00;9.00;;;;;23.31;54.02;101719.44;4986925;28;45452;-84
2021/07/19 02:48:21;;;;;;;;;9.50;8.00;;;;;23.29;54.58;101720.44;5012204;28;45352;-84
2021/07/19 02:50:53;;;;;;;;;12.00;10.00;;;;;23.27;54.40;101723.19;5003804;28;45243;-83
2021/07/19 02:53:18;;;;;;;;;9.75;9.00;;;;;23.26;54.18;101717.88;5008213;28;45451;-83
2021/07/19 02:55:46;;;;;;;;;14.00;12.00;;;;;23.29;54.44;101724.00;5002609;28;45451;-83
2021/07/19 02:58:15;;;;;;;;;12.25;11.25;;;;;23.24;54.77;101714.38;5000657;28;45266;-83
2021/07/19 03:00:43;;;;;;;;;10.67;10.00;;;;;23.27;54.22;101725.00;5004557;28;45300;-82
2021/07/19 03:03:13;;;;;;;;;9.33;9.00;;;;;23.24;54.26;101730.50;5003563;28;45546;-83
2021/07/19 03:05:42;;;;;;;;;13.50;10.75;;;;;23.23;54.58;101721.56;5000678;28;45220;-83
2021/07/19 03:08:11;;;;;;;;;8.25;8.00;;;;;23.24;54.66;101727.81;5001255;28;45463;-83
2021/07/19 03:10:38;;;;;;;;;13.00;10.75;;;;;23.25;54.40;101722.34;4982574;28;46071;-83
2021/07/19 03:13:11;;;;;;;;;11.00;10.00;;;;;23.27;54.63;101719.63;5001485;28;45212;-83
2021/07/19 03:15:39;;;;;;;;;8.75;8.75;;;;;23.26;54.31;101721.44;4999664;28;45222;-83
2021/07/19 03:18:07;;;;;;;;;11.75;11.75;;;;;23.26;54.62;101718.75;5019474;28;45269;-83
2021/07/19 03:20:36;;;;;;;;;12.25;10.50;;;;;23.25;54.52;101718.81;5014344;28;45501;-83
2021/07/19 03:23:04;;;;;;;;;11.25;10.50;;;;;23.27;55.04;101723.19;5001448;28;45489;-84
2021/07/19 03:25:31;;;;;;;;;12.00;10.67;;;;;23.20;54.57;101719.03;5034299;28;45239;-83
2021/07/19 03:27:58;;;;;;;;;13.75;11.75;;;;;23.20;54.69;101721.72;5011807;28;45539;-83
2021/07/19 03:30:24;;;;;;;;;13.50;13.50;;;;;23.15;55.06;101712.06;5008421;28;45369;-83
2021/07/19 03:32:51;;;;;;;;;15.50;12.00;;;;;23.16;54.91;101706.63;4992138;28;45385;-83
2021/07/19 03:35:18;;;;;;;;;15.00;14.25;;;;;23.13;54.94;101704.06;5003105;28;45403;-84
2021/07/19 03:37:45;;;;;;;;;13.25;12.25;;;;;23.11;54.76;101705.94;5005671;28;45420;-83
2021/07/19 03:40:12;;;;;;;;;11.50;11.50;;;;;23.12;54.65;101715.75;4993269;28;45293;-83
2021/07/19 03:42:38;;;;;;;;;13.25;11.25;;;;;23.08;54.85;101712.31;5005142;28;45503;-83
2021/07/19 03:45:04;;;;;;;;;13.00;12.00;;;;;23.04;54.91;101710.69;4995833;28;45957;-83
2021/07/19 03:47:31;;;;;;;;;13.50;11.25;;;;;23.02;55.16;101709.00;4988364;28;47510;-84
2021/07/19 03:49:57;;;;;;;;;12.00;10.75;;;;;22.96;55.10;101704.78;4996121;28;45359;-83
2021/07/19 03:52:23;;;;;;;;;14.25;13.25;;;;;22.96;55.44;101699.41;5019360;28;45166;-83
2021/07/19 03:54:49;;;;;;;;;13.50;12.00;;;;;22.89;55.05;101693.34;4994632;28;45618;-83
2021/07/19 03:57:15;;;;;;;;;13.75;11.00;;;;;22.90;54.98;101705.81;5007079;28;46304;-83
2021/07/19 03:59:42;;;;;;;;;15.75;13.00;;;;;22.83;55.03;101704.34;4996855;28;45331;-83
2021/07/19 04:02:11;;;;;;;;;11.75;9.50;;;;;22.82;55.06;101704.38;5003818;28;45428;-83
2021/07/19 04:04:44;;;;;;;;;11.00;11.00;;;;;22.80;54.82;101703.56;4995077;28;45487;-83
2021/07/19 04:07:13;;;;;;;;;12.25;11.75;;;;;22.77;55.33;101704.56;5003369;28;45807;-83
2021/07/19 04:09:39;;;;;;;;;9.25;9.25;;;;;22.75;54.93;101700.19;5002546;28;45275;-83
2021/07/19 04:12:11;;;;;;;;;12.00;11.00;;;;;22.72;55.26;101701.22;5004506;28;45245;-83
2021/07/19 04:14:38;;;;;;;;;11.25;10.25;;;;;22.72;55.57;101700.31;5002648;28;45458;-83
2021/07/19 04:17:08;;;;;;;;;12.25;10.00;;;;;22.72;55.43;101711.06;4993603;28;47317;-83
2021/07/19 04:19:34;;;;;;;;;10.25;10.25;;;;;22.73;55.28;101708.31;4990799;28;45463;-83
2021/07/19 04:22:00;;;;;;;;;10.00;9.50;;;;;22.68;55.50;101703.13;5004334;28;45486;-82
2021/07/19 04:24:26;;;;;;;;;11.25;9.75;;;;;22.70;55.61;101711.13;5011586;28;45317;-83
2021/07/19 04:26:52;;;;;;;;;14.00;12.00;;;;;22.65;55.59;101716.66;5011099;28;47217;-83
2021/07/19 04:29:24;;;;;;;;;12.25;11.25;;;;;22.58;56.71;101707.09;5003502;28;45288;-83
2021/07/19 04:31:57;;;;;;;;;11.25;11.00;;;;;22.52;56.36;101715.38;5019814;28;45335;-84
2021/07/19 04:34:31;;;;;;;;;11.25;9.25;;;;;22.48;56.54;101713.78;5007554;28;45524;-84
2021/07/19 04:37:04;;;;;;;;;11.75;11.75;;;;;22.50;56.25;101716.38;5001352;28;47091;-84
2021/07/19 04:39:30;;;;;;;;;11.50;10.50;;;;;22.48;56.18;101718.22;5003777;28;45269;-83
2021/07/19 04:41:56;;;;;;;;;13.00;10.75;;;;;22.49;56.48;101714.63;5000793;28;45211;-83
2021/07/19 04:44:22;;;;;;;;;12.50;12.00;;;;;22.45;56.37;101700.44;5023731;28;45369;-82
2021/07/19 04:46:51;;;;;;;;;12.75;11.25;;;;;22.48;56.26;101712.88;5026795;28;45457;-82
2021/07/19 04:49:17;;;;;;;;;13.25;11.00;;;;;22.53;55.99;101711.75;5004570;28;45218;-83
2021/07/19 04:51:45;;;;;;;;;11.75;11.25;;;;;22.55;56.07;101706.34;5004852;28;45240;-83
2021/07/19 04:54:12;;;;;;;;;12.75;12.25;;;;;22.55;56.27;101704.53;5005394;28;45314;-83
2021/07/19 04:56:39;;;;;;;;;12.00;11.00;;;;;22.56;56.64;101702.72;5003273;28;45354;-83
2021/07/19 04:59:06;;;;;;;;;11.25;11.00;;;;;22.58;56.24;101704.41;5003338;28;45447;-83
2021/07/19 05:01:33;;;;;;;;;14.75;13.75;;;;;22.63;56.22;101707.78;5004329;28;45346;-83
2021/07/19 05:04:00;;;;;;;;;11.50;10.75;;;;;22.65;56.44;101703.25;5002713;28;45221;-84
2021/07/19 05:06:28;;;;;;;;;14.75;14.75;;;;;22.64;56.36;101706.88;4997556;28;47070;-83
2021/07/19 05:08:56;;;;;;;;;11.75;10.75;;;;;22.69;56.50;101709.34;5014822;28;45328;-83
2021/07/19 05:11:24;;;;;;;;;14.25;13.50;;;;;22.71;56.42;101718.22;4983559;28;45283;-84
2021/07/19 05:13:50;;;;;;;;;15.00;12.75;;;;;22.74;56.43;101723.47;5002821;28;45309;-83
2021/07/19 05:16:16;;;;;;;;;15.75;15.00;;;;;22.75;56.42;101716.28;4983241;28;47562;-83
2021/07/19 05:18:44;;;;;;;;;14.75;13.50;;;;;22.75;56.59;101719.88;5009660;28;45391;-83
2021/07/19 05:21:10;;;;;;;;;16.50;14.00;;;;;22.74;56.29;101717.25;5021852;28;45395;-83
2021/07/19 05:23:36;;;;;;;;;14.75;14.75;;;;;22.77;56.64;101715.31;4995243;28;45926;-83
2021/07/19 05:26:02;;;;;;;;;17.25;14.50;;;;;22.78;56.60;101714.38;5035311;28;45292;-83
2021/07/19 05:28:27;;;;;;;;;15.50;13.75;;;;;22.81;56.50;101718.75;5014721;28;45229;-84
2021/07/19 05:30:54;;;;;;;;;13.50;12.75;;;;;22.78;56.77;101719.75;5001857;28;45443;-85
2021/07/19 05:33:24;;;;;;;;;15.25;13.25;;;;;22.77;56.71;101715.31;4988571;28;45468;-85
2021/07/19 05:35:50;;;;;;;;;15.50;15.00;;;;;22.79;56.55;101726.00;5002043;28;46503;-83
2021/07/19 05:38:16;;;;;;;;;15.00;14.00;;;;;22.78;56.56;101724.25;5001528;28;45273;-77
2021/07/19 05:40:43;;;;;;;;;14.50;14.50;;;;;22.82;56.50;101726.75;5001429;28;45248;-83
2021/07/19 05:43:08;;;;;;;;;19.00;15.25;;;;;22.82;56.39;101725.88;4991579;28;45330;-84
2021/07/19 05:45:34;;;;;;;;;15.25;15.25;;;;;22.81;56.95;101722.31;4995465;28;48231;-86
2021/07/19 05:47:59;;;;;;;;;16.25;15.00;;;;;22.80;56.22;101722.38;5002342;28;45248;-86
2021/07/19 05:50:27;;;;;;;;;12.25;11.25;;;;;22.82;56.41;101723.19;4998444;28;45305;-83
2021/07/19 05:52:56;;;;;;;;;13.00;12.50;;;;;22.80;56.50;101719.69;4993882;28;45466;-84
2021/07/19 05:55:22;;;;;;;;;12.75;11.75;;;;;22.81;56.37;101716.94;5001788;28;47863;-86
2021/07/19 05:57:48;;;;;;;;;14.00;14.00;;;;;22.90;56.24;101727.31;5013853;28;45205;-84
2021/07/19 06:00:18;;;;;;;;;15.00;15.00;;;;;22.94;56.52;101727.22;4998228;28;45242;-83
2021/07/19 06:02:44;;;;;;;;;13.00;12.25;;;;;22.96;56.38;101725.31;5003695;28;45567;-86
2021/07/19 06:05:11;;;;;;;;;12.00;11.00;;;;;22.99;55.88;101722.53;4989471;28;47310;-84
2021/07/19 06:07:37;;;;;;;;;14.25;12.75;;;;;22.98;56.23;101721.66;5003781;28;45303;-83
2021/07/19 06:10:05;;;;;;;;;17.00;15.25;;;;;22.97;56.23;101724.44;4989707;28;45279;-85
2021/07/19 06:12:31;;;;;;;;;15.25;14.75;;;;;22.98;56.51;101721.66;5011246;28;45465;-85
2021/07/19 06:14:56;;;;;;;;;14.00;13.00;;;;;23.03;56.16;101721.50;5000869;28;45241;-84
2021/07/19 06:17:22;;;;;;;;;14.75;13.75;;;;;23.03;55.90;101716.13;4985528;28;45275;-83
2021/07/19 06:19:47;;;;;;;;;16.00;16.00;;;;;23.07;55.94;101715.06;5016998;28;45443;-85
2021/07/19 06:22:13;;;;;;;;;15.00;14.00;;;;;23.11;55.71;101714.88;5000233;28;45404;-83
2021/07/19 06:24:39;;;;;;;;;15.00;14.25;;;;;23.19;56.00;101722.63;5010343;28;45419;-84
2021/07/19 06:27:08;;;;;;;;;16.25;11.75;;;;;23.22;55.81;101719.81;5003670;28;45455;-84
2021/07/19 06:29:34;;;;;;;;;15.75;14.25;;;;;23.26;55.68;101715.19;4983040;28;45235;-85
2021/07/19 06:32:01;;;;;;;;;12.50;11.75;;;;;23.31;55.79;101721.25;5000501;28;45489;-83
2021/07/19 06:34:27;;;;;;;;;12.50;11.00;;;;;23.31;55.53;101708.69;5003864;28;46436;-83
2021/07/19 06:36:52;;;;;;;;;14.00;12.00;;;;;23.36;55.54;101713.84;4992393;28;45512;-83
2021/07/19 06:39:18;;;;;;;;;14.50;14.50;;;;;23.41;55.41;101716.34;5019868;28;45317;-83
2021/07/19 06:41:43;;;;;;;;;12.25;12.25;;;;;23.41;55.58;101717.22;5020548;28;45336;-83
2021/07/19 06:44:09;;;;;;;;;11.75;10.00;;;;;23.40;55.44;101702.06;5019808;28;45404;-85
2021/07/19 06:46:34;;;;;;;;;14.25;12.50;;;;;23.46;55.30;101717.91;5017618;28;45306;-84
2021/07/19 06:48:59;;;;;;;;;15.75;12.75;;;;;23.47;54.98;101710.72;5020333;28;46021;-84
2021/07/19 06:51:25;;;;;;;;;13.50;12.75;;;;;23.53;55.30;101713.16;5004274;28;45329;-82
2021/07/19 06:53:50;;;;;;;;;14.75;13.75;;;;;23.55;54.99;101701.41;5019835;28;46356;-81
2021/07/19 06:56:15;;;;;;;;;17.50;14.75;;;;;23.56;55.15;101699.59;5002023;28;45460;-81
2021/07/19 06:58:41;;;;;;;;;17.50;16.00;;;;;23.66;54.89;101708.16;4998421;28;45896;-85
2021/07/19 07:01:06;;;;;;;;;14.75;13.50;;;;;23.70;54.73;101704.38;4986244;28;45680;-82
2021/07/19 07:03:32;;;;;;;;;14.75;13.25;;;;;23.68;54.62;101707.13;5003085;28;46500;-83
2021/07/19 07:05:58;;;;;;;;;10.50;10.50;;;;;23.68;55.32;101707.13;4995326;28;45275;-86
2021/07/19 07:08:23;;;;;;;;;15.00;13.75;;;;;23.77;55.10;101706.75;5020948;28;46012;-85
2021/07/19 07:10:49;;;;;;;;;14.50;14.25;;;;;23.85;55.17;101711.81;4985260;28;45236;-85
2021/07/19 07:13:15;;;;;;;;;13.00;11.25;;;;;23.90;54.62;101711.63;5003968;28;46151;-85
2021/07/19 07:15:41;;;;;;;;;15.00;13.00;;;;;23.97;54.66;101713.06;5003782;28;45389;-84
2021/07/19 07:18:10;;;;;;;;;11.75;11.75;;;;;23.96;54.76;101711.34;5019240;28;45222;-86
2021/07/19 07:20:36;;;;;;;;;13.00;11.25;;;;;23.95;54.18;101704.19;5005195;28;45772;-86
2021/07/19 07:23:02;;;;;;;;;11.75;11.25;;;;;23.99;54.21;101700.44;5002782;28;47476;-84
2021/07/19 07:25:28;;;;;;;;;12.00;12.00;;;;;24.10;54.03;101708.88;5026422;28;45477;-83
2021/07/19 07:27:53;;;;;;;;;12.00;12.00;;;;;24.16;54.36;101700.56;5011907;28;45240;-88
2021/07/19 07:30:20;;;;;;;;;12.00;10.75;;;;;24.29;54.13;101716.13;5003322;28;45220;-88
2021/07/19 07:32:47;;;;;;;;;14.50;12.00;;;;;24.34;53.68;101712.28;5008613;28;47626;-84
2021/07/19 07:35:14;;;;;;;;;11.67;11.67;;;;;24.46;53.42;101712.69;5012851;28;45487;-81
2021/07/19 07:37:39;;;;;;;;;11.75;11.00;;;;;24.55;53.19;101709.59;5002493;28;45429;-79
2021/07/19 07:40:08;;;;;;;;;12.00;11.67;;;;;24.65;52.75;101706.38;5002516;28;45623;-83
2021/07/19 07:42:34;;;;;;;;;14.25;14.25;;;;;24.71;52.76;101707.91;5002876;28;45549;-83
2021/07/19 07:45:00;;;;;;;;;11.75;10.75;;;;;24.75;52.10;101712.22;4996045;28;45233;-82
2021/07/19 07:47:25;;;;;;;;;11.00;10.00;;;;;24.75;52.69;101714.91;5018259;28;45530;-82
2021/07/19 07:49:51;;;;;;;;;15.50;14.00;;;;;24.80;51.63;101699.38;4995337;28;45702;-78
2021/07/19 07:52:17;;;;;;;;;8.67;8.67;;;;;24.82;51.25;101708.25;4987965;28;46044;-82
2021/07/19 07:54:42;;;;;;;;;12.67;11.67;;;;;24.91;51.69;101703.38;5003142;28;45379;-82
2021/07/19 07:57:08;;;;;;;;;10.25;9.75;;;;;25.02;50.04;101699.22;5002906;28;45415;-85
2021/07/19 07:59:34;;;;;;;;;13.25;12.25;;;;;25.12;50.55;101690.69;4996059;28;45555;-85
2021/07/19 08:02:00;;;;;;;;;12.00;10.67;;;;;25.22;50.04;101695.56;4986374;28;47283;-85
2021/07/19 08:04:28;;;;;;;;;11.25;10.75;;;;;25.34;50.08;101696.78;5002581;28;45466;-83
2021/07/19 08:06:55;;;;;;;;;11.67;8.33;;;;;25.50;49.70;101696.84;5016293;28;46439;-83
2021/07/19 08:09:20;;;;;;;;;9.75;9.75;;;;;25.62;49.13;101695.38;5002044;28;45293;-80
2021/07/19 08:11:46;;;;;;;;;8.75;8.75;;;;;25.75;48.57;101699.19;5002203;28;45208;-84
2021/07/19 08:14:11;;;;;;;;;10.75;8.25;;;;;25.86;48.15;101691.44;5002244;28;45261;-85
2021/07/19 08:16:39;;;;;;;;;9.67;9.67;;;;;25.98;48.18;101697.13;5006332;28;45367;-88
2021/07/19 08:19:06;;;;;;;;;9.33;8.33;;;;;26.11;47.44;101695.50;5003228;28;45487;-88
2021/07/19 08:21:32;;;;;;;;;9.00;7.67;;;;;26.23;47.16;101694.84;4986107;28;47045;-88
2021/07/19 08:23:59;;;;;;;;;9.33;9.33;;;;;26.33;47.15;101693.41;4994494;28;45279;-88
2021/07/19 08:26:24;;;;;;;;;11.33;10.33;;;;;26.46;46.17;101688.19;5021785;28;45310;-92
2021/07/19 08:28:52;;;;;;;;;10.33;9.33;;;;;26.56;46.10;101685.88;5001525;28;45587;-86
2021/07/19 08:31:17;;;;;;;;;10.67;10.67;;;;;26.66;45.64;101684.41;5006726;28;46361;-87
2021/07/19 08:33:43;;;;;;;;;12.00;8.00;;;;;26.82;45.61;101689.81;5014510;28;45439;-87
2021/07/19 08:36:08;;;;;;;;;8.00;7.67;;;;;26.94;45.51;101678.28;5009231;28;45262;-85
2021/07/19 08:38:34;;;;;;;;;8.00;7.67;;;;;27.06;44.97;101687.53;5011146;28;45366;-81
2021/07/19 08:41:00;;;;;;;;;10.00;7.67;;;;;27.24;44.83;101691.03;4999979;28;47528;-79
2021/07/19 08:43:35;;;;;;;;;10.00;9.00;;;;;27.33;44.23;101690.50;4992769;28;45505;-83
2021/07/19 08:46:01;;;;;;;;;7.00;6.67;;;;;27.41;44.25;101692.75;5008722;28;45358;-82
2021/07/19 08:48:27;;;;;;;;;12.00;10.00;;;;;27.49;43.28;101688.59;5013301;28;45376;-83
2021/07/19 08:50:53;;;;;;;;;10.67;8.33;;;;;27.50;43.19;101686.78;5001149;28;47506;-85
2021/07/19 08:53:18;;;;;;;;;10.33;9.00;;;;;27.56;42.96;101680.13;4999179;28;45536;-84
2021/07/19 08:55:49;;;;;;;;;9.67;9.67;;;;;27.69;42.95;101687.41;5021140;28;45333;-81
2021/07/19 08:58:15;;;;;;;;;9.33;9.33;;;;;27.80;43.59;101685.88;5008469;28;45427;-82
2021/07/19 09:00:42;;;;;;;;;10.67;9.67;;;;;27.94;42.94;101685.94;5012691;28;45435;-80
2021/07/19 09:03:07;;;;;;;;;8.67;7.67;;;;;28.05;42.88;101677.16;5013050;28;45436;-79
2021/07/19 09:05:32;;;;;;;;;9.33;6.67;;;;;28.13;42.65;101686.53;5015868;28;45368;-83
2021/07/19 09:07:59;;;;;;;;;11.33;10.33;;;;;28.22;40.76;101684.22;5002012;28;45329;-86
2021/07/19 09:10:32;;;;;;;;;8.00;7.67;;;;;28.22;40.82;101673.38;5020253;28;46459;-82
2021/07/19 09:13:00;;;;;;;;;5.67;5.00;;;;;28.26;40.75;101680.34;5019813;28;45442;-87
2021/07/19 09:15:37;;;;;;;;;8.67;8.00;;;;;28.31;40.86;101684.50;5018183;28;45472;-82
2021/07/19 09:18:05;;;;;;;;;10.00;6.67;;;;;28.40;41.34;101679.47;5015236;28;45427;-86
2021/07/19 09:20:41;;;;;;;;;7.00;6.00;;;;;28.51;40.85;101671.56;5002029;28;47316;-84
2021/07/19 09:23:10;;;;;;;;;7.67;7.00;;;;;28.61;41.36;101669.13;5004113;28;45479;-82
2021/07/19 09:25:36;;;;;;;;;7.33;6.67;;;;;28.66;40.80;101667.00;5018262;28;45213;-83
2021/07/19 09:28:05;;;;;;;;;8.00;8.00;;;;;28.76;40.42;101674.41;4985790;28;45553;-86
2021/07/19 09:30:33;;;;;;;;;8.67;8.67;;;;;28.86;39.83;101671.09;5004156;28;45498;-85
2021/07/19 09:33:00;;;;;;;;;5.33;5.33;;;;;28.97;40.22;101679.38;5016952;28;45286;-82
2021/07/19 09:35:27;;;;;;;;;10.33;7.67;;;;;29.00;39.42;101671.03;4991027;28;45375;-81
2021/07/19 09:37:54;;;;;;;;;8.33;7.00;;;;;28.96;38.80;101674.94;4999815;28;45460;-81
2021/07/19 09:40:30;;;;;;;;;8.00;8.00;;;;;28.89;39.44;101666.31;4981960;28;47239;-83
2021/07/19 09:42:56;;;;;;;;;6.00;6.00;;;;;28.89;39.30;101671.75;5006545;28;45360;-84
2021/07/19 09:45:27;;;;;;;;;7.33;7.33;;;;;28.98;39.97;101678.44;5003524;28;45516;-83
2021/07/19 09:48:09;;;;;;;;;9.67;7.67;;;;;29.09;39.78;101666.88;5019865;28;45454;-82
2021/07/19 09:50:38;;;;;;;;;7.67;7.67;;;;;29.18;39.42;101661.69;5016517;28;46346;-85
2021/07/19 09:53:04;;;;;;;;;9.00;8.00;;;;;29.31;39.27;101658.16;5000181;28;45477;-83
2021/07/19 09:55:29;;;;;;;;;9.00;6.00;;;;;29.35;39.21;101655.16;5001219;28;45315;-84
2021/07/19 09:57:56;;;;;;;;;9.00;6.67;;;;;29.48;39.21;101663.28;4999984;28;45292;-85
2021/07/19 10:00:25;;;;;;;;;8.00;6.33;;;;;29.54;38.43;101651.13;5000627;28;45333;-84
2021/07/19 10:02:52;;;;;;;;;9.00;9.00;;;;;29.61;38.61;101661.47;4990610;28;45543;-86
2021/07/19 10:05:25;;;;;;;;;8.67;6.67;;;;;29.68;38.00;101659.25;5001144;28;45321;-84
2021/07/19 10:07:51;;;;;;;;;10.00;9.00;;;;;29.73;38.09;101651.66;5001926;28;45689;-83
2021/07/19 10:10:16;;;;;;;;;7.33;7.33;;;;;29.78;38.02;101641.34;5014695;28;46518;-85
2021/07/19 10:12:42;;;;;;;;;7.75;6.75;;;;;29.82;37.63;101647.41;4991778;28;45725;-82
2021/07/19 10:15:11;;;;;;;;;7.00;7.00;;;;;29.87;37.15;101653.38;4999797;28;45439;-82
2021/07/19 10:17:36;;;;;;;;;8.00;7.00;;;;;29.92;37.08;101653.94;5010419;28;45389;-83
2021/07/19 10:20:04;;;;;;;;;8.00;8.00;;;;;29.96;37.62;101651.84;5015101;28;48144;-83
2021/07/19 10:22:29;;;;;;;;;7.33;7.33;;;;;30.04;37.83;101653.03;5008031;28;45225;-84
2021/07/19 10:24:55;;;;;;;;;8.67;7.00;;;;;30.15;37.71;101651.41;5014696;28;45217;-85
2021/07/19 10:27:24;;;;;;;;;7.67;7.67;;;;;30.27;37.33;101651.44;5016343;28;45412;-86
2021/07/19 10:29:50;;;;;;;;;6.33;6.33;;;;;30.40;37.69;101648.69;5000264;28;45403;-84
2021/07/19 10:32:18;;;;;;;;;7.50;7.50;;;;;30.48;37.41;101648.13;5007442;28;45435;-82
2021/07/19 10:34:48;;;;;;;;;9.50;9.00;;;;;30.56;36.62;101648.44;5000534;28;45214;-80
2021/07/19 10:37:39;;;;;;;;;9.33;9.00;;;;;30.60;35.91;101649.91;5006360;28;45395;-86
2021/07/19 10:40:09;;;;;;;;;7.00;6.00;;;;;30.71;36.04;101660.00;5008013;28;45548;-86
2021/07/19 10:42:37;;;;;;;;;10.33;8.33;;;;;30.73;35.54;101644.44;5020132;28;45369;-88
2021/07/19 10:45:10;;;;;;;;;7.00;6.33;;;;;30.76;35.53;101639.63;5012697;28;45193;-85
2021/07/19 10:47:57;;;;;;;;;9.00;8.00;;;;;30.82;35.81;101641.09;5003847;28;45551;-89
2021/07/19 10:50:27;;;;;;;;;8.25;8.25;;;;;30.85;35.97;101638.13;5009446;28;46762;-92
2021/07/19 10:53:01;;;;;;;;;8.33;8.33;;;;;31.05;36.20;101627.59;4996837;28;45285;-93
2021/07/19 10:55:33;;;;;;;;;9.00;8.33;;;;;31.22;35.68;101629.88;4989836;28;45377;-92
2021/07/19 10:58:05;;;;;;;;;9.33;8.33;;;;;31.44;35.50;101636.44;5006856;28;45249;-92
2021/07/19 11:00:38;;;;;;;;;9.00;9.00;;;;;31.57;35.57;101629.91;5005024;28;48200;-92
2021/07/19 11:03:07;;;;;;;;;9.33;8.67;;;;;31.75;34.46;101624.84;4996322;28;45442;-91
2021/07/19 11:05:49;;;;;;;;;7.00;6.67;;;;;31.90;34.44;101622.75;4985787;28;45262;-91
2021/07/19 11:08:24;;;;;;;;;9.33;7.67;;;;;32.02;33.88;101624.53;4984123;28;45972;-88
2021/07/19 11:10:51;;;;;;;;;8.00;7.33;;;;;32.10;33.96;101628.50;4984620;28;47263;-92
2021/07/19 11:13:31;;;;;;;;;7.00;6.67;;;;;32.19;33.68;101628.63;5001719;28;45539;-92
2021/07/19 11:15:57;;;;;;;;;9.00;7.67;;;;;32.19;33.13;101623.16;4993588;28;45354;-96
2021/07/19 11:18:32;;;;;;;;;9.00;9.00;;;;;32.15;33.51;101620.81;4999848;28;45372;-95